Time;durP1;ratioP1;P1;durP2;ratioP2;P2;SDS_P1;SDS_P2;PMS_P1;PMS_P2;Temp;Humidity;BMP_temperature;BMP_pressure;BME280_temperature;BME280_humidity;BME280_pressure;Samples;Min_cycle;Max_cycle;Signal;HPM_P1;HPM_P2
2022/08/02 00:02:11;;;;;;;4.45;1.90;;;;;;;;;;4944594;28;20039;-72
2022/08/02 00:04:37;;;;;;;2.60;2.15;;;;;;;;;;4946331;28;20039;-70
2022/08/02 00:07:02;;;;;;;2.35;2.15;;;;;;;;;;4941756;28;20028;-72
2022/08/02 00:09:28;;;;;;;2.85;1.85;;;;;;;;;;4943076;28;20471;-69
2022/08/02 00:11:53;;;;;;;4.15;2.15;;;;;;;;;;4940750;28;20387;-69
2022/08/02 00:14:19;;;;;;;6.22;2.00;;;;;;;;;;4937648;28;20043;-74
2022/08/02 00:16:44;;;;;;;2.63;1.88;;;;;;;;;;4940823;28;20031;-72
2022/08/02 00:19:09;;;;;;;2.55;1.80;;;;;;;;;;4944036;28;20503;-72
2022/08/02 00:21:35;;;;;;;4.38;2.15;;;;;;;;;;4940053;28;20027;-72
2022/08/02 00:24:00;;;;;;;2.20;2.00;;;;;;;;;;4941199;28;20032;-69
2022/08/02 00:26:26;;;;;;;2.25;1.88;;;;;;;;;;4942701;28;20031;-71
2022/08/02 00:28:51;;;;;;;2.80;1.90;;;;;;;;;;4946205;28;20066;-70
2022/08/02 00:31:17;;;;;;;3.15;2.05;;;;;;;;;;4945956;28;20082;-74
2022/08/02 00:33:44;;;;;;;2.03;1.83;;;;;;;;;;4947058;28;20073;-74
2022/08/02 00:36:09;;;;;;;4.28;2.10;;;;;;;;;;4945127;28;20035;-69
2022/08/02 00:38:34;;;;;;;3.35;1.88;;;;;;;;;;4946612;28;20514;-70
2022/08/02 00:41:00;;;;;;;4.00;1.92;;;;;;;;;;4945541;28;20043;-69
2022/08/02 00:43:25;;;;;;;2.47;1.90;;;;;;;;;;4946778;28;20066;-70
2022/08/02 00:45:50;;;;;;;5.38;1.90;;;;;;;;;;4941690;28;20117;-71
2022/08/02 00:48:16;;;;;;;2.83;1.85;;;;;;;;;;4939893;28;20026;-71
2022/08/02 00:50:41;;;;;;;3.70;1.90;;;;;;;;;;4922945;28;22219;-70
2022/08/02 00:53:08;;;;;;;2.47;2.03;;;;;;;;;;4921658;28;20583;-71
2022/08/02 00:55:34;;;;;;;4.63;2.10;;;;;;;;;;4917102;28;20488;-71
2022/08/02 00:58:00;;;;;;;2.05;1.90;;;;;;;;;;4922388;28;20040;-73
2022/08/02 01:00:26;;;;;;;1.95;1.65;;;;;;;;;;4922029;28;20031;-72
2022/08/02 01:02:51;;;;;;;2.70;1.88;;;;;;;;;;4920117;29;20028;-70
2022/08/02 01:05:17;;;;;;;3.08;1.88;;;;;;;;;;4921893;28;20496;-76
2022/08/02 01:07:42;;;;;;;3.03;2.42;;;;;;;;;;4919852;28;20051;-71
2022/08/02 01:10:08;;;;;;;2.95;1.80;;;;;;;;;;4919049;28;20044;-72
2022/08/02 01:12:34;;;;;;;2.38;1.75;;;;;;;;;;4919454;28;20492;-74
2022/08/02 01:15:04;;;;;;;3.15;1.75;;;;;;;;;;4920804;29;20560;-71
2022/08/02 01:17:55;;;;;;;4.38;1.70;;;;;;;;;;4921795;28;20036;-70
2022/08/02 01:20:52;;;;;;;2.28;1.70;;;;;;;;;;4921484;28;20464;-70
2022/08/02 01:23:39;;;;;;;2.05;1.80;;;;;;;;;;4943069;28;20170;-71
2022/08/02 01:26:42;;;;;;;2.08;1.88;;;;;;;;;;4942244;28;21313;-72
2022/08/02 01:29:11;;;;;;;3.42;1.88;;;;;;;;;;4937838;28;20151;-70
2022/08/02 01:32:04;;;;;;;2.72;2.00;;;;;;;;;;4941915;28;20508;-72
2022/08/02 01:34:42;;;;;;;4.28;2.00;;;;;;;;;;4921641;28;20040;-73
2022/08/02 01:37:15;;;;;;;2.05;1.85;;;;;;;;;;4928559;28;20051;-70
2022/08/02 01:39:43;;;;;;;1.95;1.75;;;;;;;;;;4941416;28;20050;-71
2022/08/02 01:42:10;;;;;;;2.22;2.00;;;;;;;;;;4941650;28;20483;-72
2022/08/02 01:44:39;;;;;;;2.20;2.00;;;;;;;;;;4937680;28;20039;-70
2022/08/02 01:47:14;;;;;;;3.10;1.70;;;;;;;;;;4942259;28;20126;-70
2022/08/02 01:49:41;;;;;;;2.35;1.80;;;;;;;;;;4944521;28;20036;-69
2022/08/02 01:52:20;;;;;;;2.35;1.80;;;;;;;;;;4939095;28;20047;-71
2022/08/02 01:55:02;;;;;;;4.75;1.77;;;;;;;;;;4940343;28;20113;-72
2022/08/02 01:57:33;;;;;;;3.30;2.20;;;;;;;;;;4943466;28;20019;-71
2022/08/02 02:00:01;;;;;;;7.10;1.90;;;;;;;;;;4937597;28;20067;-72
2022/08/02 02:02:28;;;;;;;2.17;1.98;;;;;;;;;;4939696;28;20055;-72
2022/08/02 02:04:56;;;;;;;4.10;1.77;;;;;;;;;;4941058;28;20047;-70
2022/08/02 02:07:22;;;;;;;2.10;1.90;;;;;;;;;;4935247;28;20795;-70
2022/08/02 02:09:49;;;;;;;3.08;1.80;;;;;;;;;;4923165;28;20040;-70
2022/08/02 02:12:16;;;;;;;1.58;1.48;;;;;;;;;;4923694;29;20055;-70
2022/08/02 02:14:43;;;;;;;1.90;1.63;;;;;;;;;;4924490;28;20444;-75
2022/08/02 02:17:10;;;;;;;1.98;1.80;;;;;;;;;;4925169;29;20079;-69
2022/08/02 02:19:37;;;;;;;2.20;2.00;;;;;;;;;;4924324;28;20060;-69
2022/08/02 02:22:03;;;;;;;1.98;1.70;;;;;;;;;;4924893;28;20123;-71
2022/08/02 02:24:29;;;;;;;3.70;2.30;;;;;;;;;;4924425;28;20510;-71
2022/08/02 02:26:54;;;;;;;5.05;2.33;;;;;;;;;;4925227;29;20043;-72
2022/08/02 02:29:23;;;;;;;2.28;2.10;;;;;;;;;;4927602;28;20047;-70
2022/08/02 02:31:52;;;;;;;2.30;1.90;;;;;;;;;;4928959;28;20559;-70
2022/08/02 02:34:28;;;;;;;2.60;2.03;;;;;;;;;;4942174;28;20131;-70
2022/08/02 02:36:56;;;;;;;2.67;1.88;;;;;;;;;;4929426;28;20047;-71
2022/08/02 02:39:25;;;;;;;2.20;1.98;;;;;;;;;;4929363;28;20634;-70
2022/08/02 02:41:52;;;;;;;3.28;2.03;;;;;;;;;;4949851;28;20067;-71
2022/08/02 02:44:20;;;;;;;3.83;1.85;;;;;;;;;;4947365;28;20122;-71
2022/08/02 02:46:48;;;;;;;1.92;1.73;;;;;;;;;;4941197;28;20126;-74
2022/08/02 02:49:15;;;;;;;2.05;1.80;;;;;;;;;;4940555;28;20511;-69
2022/08/02 02:51:42;;;;;;;2.25;1.92;;;;;;;;;;4944092;28;20379;-70
2022/08/02 02:54:10;;;;;;;4.15;1.90;;;;;;;;;;4943968;28;20885;-70
2022/08/02 02:56:37;;;;;;;3.08;1.90;;;;;;;;;;4942598;28;20050;-70
2022/08/02 02:59:03;;;;;;;3.05;1.98;;;;;;;;;;4939717;28;20042;-70
2022/08/02 03:01:31;;;;;;;2.60;2.10;;;;;;;;;;4950041;28;20073;-70
2022/08/02 03:04:01;;;;;;;2.20;2.00;;;;;;;;;;4949112;28;20039;-71
2022/08/02 03:06:30;;;;;;;2.13;1.92;;;;;;;;;;4944214;28;20034;-74
2022/08/02 03:08:55;;;;;;;2.83;2.00;;;;;;;;;;4949313;28;20474;-70
2022/08/02 03:11:23;;;;;;;2.15;1.70;;;;;;;;;;4949349;28;20079;-70
2022/08/02 03:13:49;;;;;;;2.15;1.90;;;;;;;;;;4937043;28;20036;-70
2022/08/02 03:16:14;;;;;;;2.25;1.90;;;;;;;;;;4922713;28;20530;-69
2022/08/02 03:18:42;;;;;;;2.47;1.73;;;;;;;;;;4926035;28;20040;-69
2022/08/02 03:21:12;;;;;;;2.85;2.00;;;;;;;;;;4925505;29;20029;-70
2022/08/02 03:23:39;;;;;;;3.42;1.92;;;;;;;;;;4925173;28;20043;-69
2022/08/02 03:26:05;;;;;;;2.40;1.77;;;;;;;;;;4950672;28;20083;-72
2022/08/02 03:28:31;;;;;;;2.15;1.95;;;;;;;;;;4943784;28;20050;-70
2022/08/02 03:30:57;;;;;;;5.05;2.13;;;;;;;;;;4934728;28;20040;-70
2022/08/02 03:33:24;;;;;;;3.97;2.10;;;;;;;;;;4923919;28;20374;-74
2022/08/02 03:35:52;;;;;;;2.22;1.85;;;;;;;;;;4923653;29;20043;-71
2022/08/02 03:38:21;;;;;;;2.65;1.90;;;;;;;;;;4924447;28;20054;-72
2022/08/02 03:40:47;;;;;;;3.25;1.90;;;;;;;;;;4924567;28;20516;-71
2022/08/02 03:43:14;;;;;;;2.80;2.58;;;;;;;;;;4946557;28;20046;-69
2022/08/02 03:45:42;;;;;;;2.22;1.90;;;;;;;;;;4956840;28;20043;-72
2022/08/02 03:48:10;;;;;;;2.40;2.20;;;;;;;;;;4945079;28;20039;-71
2022/08/02 03:50:36;;;;;;;2.75;2.03;;;;;;;;;;4939865;28;20043;-70
2022/08/02 03:53:04;;;;;;;2.92;2.08;;;;;;;;;;4943203;28;20042;-73
2022/08/02 03:55:29;;;;;;;5.50;1.80;;;;;;;;;;4943324;28;20098;-70
2022/08/02 03:57:55;;;;;;;3.42;2.00;;;;;;;;;;4942540;28;20043;-71
2022/08/02 04:00:22;;;;;;;2.58;2.38;;;;;;;;;;4942418;28;20037;-71
2022/08/02 04:02:48;;;;;;;2.95;2.00;;;;;;;;;;4944218;28;20023;-73
2022/08/02 04:05:15;;;;;;;6.22;2.15;;;;;;;;;;4939800;28;20039;-71
2022/08/02 04:07:42;;;;;;;3.10;2.03;;;;;;;;;;4938740;28;20118;-70
2022/08/02 04:10:08;;;;;;;3.08;2.00;;;;;;;;;;4946285;28;20047;-70
2022/08/02 04:12:34;;;;;;;2.25;1.88;;;;;;;;;;4938983;28;20039;-73
2022/08/02 04:15:00;;;;;;;2.30;2.08;;;;;;;;;;4922447;29;20508;-70
2022/08/02 04:17:28;;;;;;;2.67;2.28;;;;;;;;;;4922746;28;20477;-73
2022/08/02 04:19:56;;;;;;;3.55;2.30;;;;;;;;;;4920670;28;20127;-70
2022/08/02 04:22:29;;;;;;;2.90;2.30;;;;;;;;;;4923621;28;20038;-71
2022/08/02 04:25:01;;;;;;;4.57;2.00;;;;;;;;;;4922762;29;20055;-69
2022/08/02 04:27:29;;;;;;;4.95;2.20;;;;;;;;;;4956099;28;20082;-71
2022/08/02 04:29:56;;;;;;;5.25;2.60;;;;;;;;;;4929446;28;20131;-69
2022/08/02 04:32:22;;;;;;;4.20;2.30;;;;;;;;;;4940830;28;20470;-72
2022/08/02 04:34:48;;;;;;;3.97;2.20;;;;;;;;;;4949107;28;20039;-72
2022/08/02 04:37:13;;;;;;;3.10;2.38;;;;;;;;;;4946472;28;20533;-69
2022/08/02 04:39:42;;;;;;;3.45;2.55;;;;;;;;;;4949987;28;20058;-73
2022/08/02 04:42:07;;;;;;;3.72;2.45;;;;;;;;;;4957048;28;20075;-74
2022/08/02 04:44:33;;;;;;;3.67;2.47;;;;;;;;;;4928453;28;20040;-74
2022/08/02 04:47:01;;;;;;;4.93;2.30;;;;;;;;;;4926717;28;20098;-71
2022/08/02 04:49:30;;;;;;;7.45;2.40;;;;;;;;;;4926236;28;20050;-71
2022/08/02 04:51:56;;;;;;;4.05;2.60;;;;;;;;;;4925193;29;20532;-71
2022/08/02 04:54:21;;;;;;;7.00;2.75;;;;;;;;;;4922087;28;20081;-70
2022/08/02 04:56:47;;;;;;;5.95;2.20;;;;;;;;;;4924006;28;20062;-71
2022/08/02 04:59:12;;;;;;;2.58;2.30;;;;;;;;;;4923666;28;20115;-70
2022/08/02 05:01:38;;;;;;;4.05;2.60;;;;;;;;;;4924291;28;20500;-70
2022/08/02 05:04:04;;;;;;;5.38;2.42;;;;;;;;;;4930556;28;20134;-72
2022/08/02 05:06:30;;;;;;;3.45;2.17;;;;;;;;;;4957414;28;20035;-70
2022/08/02 05:08:56;;;;;;;6.43;2.33;;;;;;;;;;4942167;28;20042;-71
2022/08/02 05:11:23;;;;;;;6.00;2.60;;;;;;;;;;4940838;28;20399;-70
2022/08/02 05:13:49;;;;;;;2.78;2.50;;;;;;;;;;4942446;28;20043;-71
2022/08/02 05:16:14;;;;;;;2.50;2.30;;;;;;;;;;4942208;28;20064;-70
2022/08/02 05:18:39;;;;;;;4.63;2.35;;;;;;;;;;4938723;28;20039;-72
2022/08/02 05:21:05;;;;;;;4.43;2.30;;;;;;;;;;4943303;28;20062;-69
2022/08/02 05:23:30;;;;;;;4.07;2.05;;;;;;;;;;4943617;28;20031;-72
2022/08/02 05:25:56;;;;;;;3.65;2.17;;;;;;;;;;4944314;28;20034;-69
2022/08/02 05:28:21;;;;;;;2.70;2.50;;;;;;;;;;4942198;28;20063;-70
2022/08/02 05:30:46;;;;;;;4.85;3.38;;;;;;;;;;4941720;28;20046;-71
2022/08/02 05:33:12;;;;;;;5.55;2.83;;;;;;;;;;4945783;28;20050;-70
2022/08/02 05:35:37;;;;;;;3.28;2.97;;;;;;;;;;4940748;28;20389;-70
2022/08/02 05:38:02;;;;;;;3.85;2.65;;;;;;;;;;4943785;28;20043;-71
2022/08/02 05:40:28;;;;;;;6.28;2.63;;;;;;;;;;4941051;28;20035;-68
2022/08/02 05:42:54;;;;;;;3.65;2.40;;;;;;;;;;4945328;28;20102;-69
2022/08/02 05:45:19;;;;;;;2.90;2.60;;;;;;;;;;4944146;28;20031;-69
2022/08/02 05:47:45;;;;;;;4.93;2.58;;;;;;;;;;4945394;28;20343;-71
2022/08/02 05:50:10;;;;;;;4.47;2.60;;;;;;;;;;4944299;28;20041;-70
2022/08/02 05:52:55;;;;;;;4.22;2.35;;;;;;;;;;4943496;28;20039;-70
2022/08/02 05:55:32;;;;;;;3.97;2.38;;;;;;;;;;4943290;28;20585;-70
2022/08/02 05:58:16;;;;;;;4.53;2.60;;;;;;;;;;4942490;28;20031;-70
2022/08/02 06:00:44;;;;;;;4.70;2.40;;;;;;;;;;4940897;28;20043;-71
2022/08/02 06:03:25;;;;;;;5.50;2.35;;;;;;;;;;4941943;28;20038;-73
2022/08/02 06:06:03;;;;;;;4.93;2.55;;;;;;;;;;4941683;28;20066;-71
2022/08/02 06:08:32;;;;;;;2.67;2.42;;;;;;;;;;4942909;28;20043;-73
2022/08/02 06:11:01;;;;;;;4.97;2.70;;;;;;;;;;4944818;28;20039;-70
2022/08/02 06:13:27;;;;;;;4.78;2.78;;;;;;;;;;4945879;28;20039;-69
2022/08/02 06:15:54;;;;;;;3.17;2.45;;;;;;;;;;4944452;28;21396;-69
2022/08/02 06:18:21;;;;;;;6.07;2.75;;;;;;;;;;4940571;28;20023;-70
2022/08/02 06:20:50;;;;;;;3.63;2.20;;;;;;;;;;4941786;28;20057;-73
2022/08/02 06:23:16;;;;;;;9.23;2.83;;;;;;;;;;4939714;28;20031;-71
2022/08/02 06:25:46;;;;;;;6.47;3.30;;;;;;;;;;4933992;28;20040;-68
2022/08/02 06:28:12;;;;;;;8.68;3.53;;;;;;;;;;4928758;28;20514;-74
2022/08/02 06:30:38;;;;;;;4.75;2.80;;;;;;;;;;4926868;28;20115;-71
2022/08/02 06:33:03;;;;;;;4.95;3.00;;;;;;;;;;4929526;29;20471;-73
2022/08/02 06:35:49;;;;;;;5.47;2.80;;;;;;;;;;4925465;28;20789;-70
2022/08/02 06:38:20;;;;;;;8.70;3.20;;;;;;;;;;4937990;28;20494;-70
2022/08/02 06:40:59;;;;;;;7.20;3.17;;;;;;;;;;4947708;28;20633;-74
2022/08/02 06:43:39;;;;;;;8.13;3.00;;;;;;;;;;4946946;28;20043;-72
2022/08/02 06:46:06;;;;;;;3.95;2.83;;;;;;;;;;4944557;28;20518;-69
2022/08/02 06:48:34;;;;;;;8.15;3.13;;;;;;;;;;4946090;28;20027;-71
2022/08/02 06:51:01;;;;;;;7.65;3.20;;;;;;;;;;4945331;28;20027;-68
2022/08/02 06:53:27;;;;;;;4.50;3.08;;;;;;;;;;4923636;28;20082;-69
2022/08/02 06:55:52;;;;;;;9.75;2.95;;;;;;;;;;4925697;28;21260;-70
2022/08/02 06:58:18;;;;;;;5.32;2.80;;;;;;;;;;4933875;28;20027;-73
2022/08/02 07:00:43;;;;;;;6.22;3.33;;;;;;;;;;4946935;28;20035;-70
2022/08/02 07:03:09;;;;;;;5.38;2.42;;;;;;;;;;4943619;28;20019;-70
2022/08/02 07:05:34;;;;;;;4.30;2.58;;;;;;;;;;4944157;28;20039;-70
2022/08/02 07:08:01;;;;;;;4.13;2.63;;;;;;;;;;4949135;28;20039;-70
2022/08/02 07:10:27;;;;;;;4.28;2.63;;;;;;;;;;4945794;28;21058;-72
2022/08/02 07:12:52;;;;;;;4.95;2.40;;;;;;;;;;4947692;28;20157;-70
2022/08/02 07:15:18;;;;;;;8.05;3.15;;;;;;;;;;4945776;28;20543;-69
2022/08/02 07:17:43;;;;;;;4.60;2.40;;;;;;;;;;4947849;28;20078;-78
2022/08/02 07:20:09;;;;;;;3.78;2.53;;;;;;;;;;4943886;28;20316;-68
2022/08/02 07:22:35;;;;;;;2.97;2.13;;;;;;;;;;4925288;28;21231;-73
2022/08/02 07:25:01;;;;;;;3.83;2.17;;;;;;;;;;4925520;28;20040;-69
2022/08/02 07:27:26;;;;;;;3.70;2.00;;;;;;;;;;4925521;28;20043;-70
2022/08/02 07:29:53;;;;;;;4.25;2.10;;;;;;;;;;4944069;28;20038;-70
2022/08/02 07:32:21;;;;;;;7.53;2.20;;;;;;;;;;4942413;28;20859;-71
2022/08/02 07:34:47;;;;;;;3.60;2.30;;;;;;;;;;4945203;28;20511;-70
2022/08/02 07:37:13;;;;;;;2.25;2.00;;;;;;;;;;4940300;28;20041;-72
2022/08/02 07:39:38;;;;;;;3.40;2.15;;;;;;;;;;4940875;28;20043;-71
2022/08/02 07:42:04;;;;;;;3.25;2.00;;;;;;;;;;4944398;28;20385;-71
2022/08/02 07:44:33;;;;;;;3.75;1.80;;;;;;;;;;4946622;28;20055;-70
2022/08/02 07:47:03;;;;;;;5.30;2.15;;;;;;;;;;4946456;28;20121;-72
2022/08/02 07:49:28;;;;;;;2.42;1.75;;;;;;;;;;4943549;28;20508;-70
2022/08/02 07:51:54;;;;;;;2.63;1.65;;;;;;;;;;4942833;28;20049;-70
2022/08/02 07:54:20;;;;;;;5.90;1.65;;;;;;;;;;4945094;28;20039;-70
2022/08/02 07:56:46;;;;;;;4.38;1.90;;;;;;;;;;4946127;28;20027;-69
2022/08/02 07:59:11;;;;;;;4.60;2.13;;;;;;;;;;4942020;28;20033;-69
2022/08/02 08:01:36;;;;;;;6.00;1.70;;;;;;;;;;4944443;28;20047;-70
2022/08/02 08:04:03;;;;;;;4.47;1.90;;;;;;;;;;4943395;28;20421;-71
2022/08/02 08:06:29;;;;;;;4.60;2.25;;;;;;;;;;4941065;28;20023;-71
2022/08/02 08:08:55;;;;;;;5.18;2.00;;;;;;;;;;4945831;28;20483;-75
2022/08/02 08:11:21;;;;;;;2.38;1.60;;;;;;;;;;4941979;28;20604;-73
2022/08/02 08:13:46;;;;;;;3.83;1.70;;;;;;;;;;4944024;28;20039;-70
2022/08/02 08:16:12;;;;;;;4.90;1.60;;;;;;;;;;4941541;28;20043;-70
2022/08/02 08:18:37;;;;;;;7.38;1.80;;;;;;;;;;4944005;28;20424;-69
2022/08/02 08:21:03;;;;;;;4.97;1.65;;;;;;;;;;4942889;28;20031;-70
2022/08/02 08:23:28;;;;;;;5.22;2.10;;;;;;;;;;4944225;28;20038;-71
2022/08/02 08:25:54;;;;;;;3.58;2.20;;;;;;;;;;4943088;28;20530;-70
2022/08/02 08:28:19;;;;;;;3.97;1.88;;;;;;;;;;4945911;28;20047;-70
2022/08/02 08:30:46;;;;;;;8.93;2.10;;;;;;;;;;4947324;28;20039;-70
2022/08/02 08:33:12;;;;;;;8.45;2.10;;;;;;;;;;4948438;28;20111;-70
2022/08/02 08:35:37;;;;;;;5.03;1.83;;;;;;;;;;4943783;28;20063;-70
2022/08/02 08:38:03;;;;;;;7.45;2.42;;;;;;;;;;4945688;28;20046;-72
2022/08/02 08:40:28;;;;;;;8.43;2.30;;;;;;;;;;4944810;28;20039;-70
2022/08/02 08:42:54;;;;;;;8.98;2.28;;;;;;;;;;4934925;28;20411;-72
2022/08/02 08:45:19;;;;;;;4.47;1.80;;;;;;;;;;4945955;28;20028;-71
2022/08/02 08:47:51;;;;;;;6.47;1.85;;;;;;;;;;4945566;28;20101;-71
2022/08/02 08:50:24;;;;;;;4.28;1.75;;;;;;;;;;4978050;28;20522;-73
2022/08/02 08:53:04;;;;;;;8.10;1.70;;;;;;;;;;4962427;28;20039;-73
2022/08/02 08:55:31;;;;;;;6.05;1.60;;;;;;;;;;4932639;28;20043;-71
2022/08/02 08:57:58;;;;;;;5.38;1.98;;;;;;;;;;4949837;28;20038;-75
2022/08/02 09:00:24;;;;;;;7.50;1.30;;;;;;;;;;4946822;28;20448;-72
2022/08/02 09:02:50;;;;;;;3.50;1.75;;;;;;;;;;4951025;28;20023;-71
2022/08/02 09:05:16;;;;;;;5.28;1.38;;;;;;;;;;4947545;28;20336;-72
2022/08/02 09:07:45;;;;;;;4.03;1.30;;;;;;;;;;4949430;28;20031;-72
2022/08/02 09:10:32;;;;;;;4.75;1.70;;;;;;;;;;4944879;28;20451;-72
2022/08/02 09:13:19;;;;;;;4.07;1.30;;;;;;;;;;4959265;28;20571;-72
2022/08/02 09:15:53;;;;;;;2.42;1.20;;;;;;;;;;4943986;28;20069;-71
2022/08/02 09:18:18;;;;;;;2.58;1.20;;;;;;;;;;4946897;28;20045;-71
2022/08/02 09:20:58;;;;;;;2.00;1.10;;;;;;;;;;4944273;28;20043;-73
2022/08/02 09:23:25;;;;;;;3.90;1.15;;;;;;;;;;4947380;28;20050;-72
2022/08/02 09:25:56;;;;;;;3.88;1.42;;;;;;;;;;4945290;28;20106;-70
2022/08/02 09:28:26;;;;;;;4.55;0.98;;;;;;;;;;4941310;28;20031;-72
2022/08/02 09:30:51;;;;;;;2.50;0.90;;;;;;;;;;4946292;28;20107;-69
2022/08/02 09:33:27;;;;;;;5.40;2.15;;;;;;;;;;4945857;28;20027;-69
2022/08/02 09:36:03;;;;;;;1.65;1.02;;;;;;;;;;4944847;28;20072;-71
2022/08/02 09:38:29;;;;;;;1.42;1.00;;;;;;;;;;4947531;28;20043;-69
2022/08/02 09:40:55;;;;;;;1.00;0.90;;;;;;;;;;4944763;28;20058;-70
2022/08/02 09:43:21;;;;;;;1.30;1.02;;;;;;;;;;4943546;28;20043;-70
2022/08/02 09:45:46;;;;;;;1.02;0.80;;;;;;;;;;4944289;28;20039;-71
2022/08/02 09:48:12;;;;;;;2.17;0.85;;;;;;;;;;4944521;28;20038;-70
2022/08/02 09:50:40;;;;;;;2.13;1.10;;;;;;;;;;4942745;28;20039;-69
2022/08/02 09:53:14;;;;;;;3.08;0.93;;;;;;;;;;4945675;28;20559;-73
2022/08/02 09:55:40;;;;;;;3.42;1.17;;;;;;;;;;4943838;28;20523;-72
2022/08/02 09:58:19;;;;;;;1.00;0.75;;;;;;;;;;4946127;28;20125;-69
2022/08/02 10:00:57;;;;;;;0.95;0.73;;;;;;;;;;4936919;28;20480;-71
2022/08/02 10:03:23;;;;;;;2.53;0.88;;;;;;;;;;4941476;28;20494;-72
2022/08/02 10:05:52;;;;;;;1.10;1.00;;;;;;;;;;4945120;28;20023;-70
2022/08/02 10:08:18;;;;;;;2.78;0.80;;;;;;;;;;4944857;28;20050;-70
2022/08/02 10:10:44;;;;;;;1.00;0.90;;;;;;;;;;4940928;28;20039;-71
2022/08/02 10:13:10;;;;;;;1.70;0.82;;;;;;;;;;4944227;28;20044;-68
2022/08/02 10:15:36;;;;;;;2.83;0.80;;;;;;;;;;4944187;28;20031;-72
2022/08/02 10:18:04;;;;;;;4.85;0.85;;;;;;;;;;4923199;29;20039;-71
2022/08/02 10:20:36;;;;;;;1.40;0.90;;;;;;;;;;4925821;28;20054;-70
2022/08/02 10:23:02;;;;;;;;;;;;;;;;;;4938190;28;20041;-70
2022/08/02 10:25:29;;;;;;;2.60;1.05;;;;;;;;;;4943240;28;20310;-69
2022/08/02 10:27:55;;;;;;;1.70;1.00;;;;;;;;;;4944273;28;20039;-70
2022/08/02 10:30:23;;;;;;;2.00;0.95;;;;;;;;;;4947977;28;20034;-72
2022/08/02 10:32:49;;;;;;;0.80;0.80;;;;;;;;;;4947568;28;20031;-70
2022/08/02 10:35:19;;;;;;;2.15;1.00;;;;;;;;;;4946866;28;20504;-72
2022/08/02 10:37:49;;;;;;;1.10;1.00;;;;;;;;;;4950051;28;20617;-73
2022/08/02 10:40:27;;;;;;;1.30;0.90;;;;;;;;;;4948322;28;20043;-71
2022/08/02 10:42:54;;;;;;;3.65;0.80;;;;;;;;;;4947404;28;20071;-72
2022/08/02 10:45:21;;;;;;;1.02;1.00;;;;;;;;;;4945197;28;20534;-69
2022/08/02 10:47:57;;;;;;;1.27;0.90;;;;;;;;;;4944992;28;20623;-70
2022/08/02 10:50:44;;;;;;;1.80;0.90;;;;;;;;;;4945981;28;20047;-70
2022/08/02 10:53:25;;;;;;;0.70;0.70;;;;;;;;;;4950172;28;20113;-69
2022/08/02 10:55:52;;;;;;;1.23;0.82;;;;;;;;;;4945566;28;20082;-69
2022/08/02 10:58:18;;;;;;;0.95;0.88;;;;;;;;;;4976591;28;20042;-70
2022/08/02 11:00:44;;;;;;;1.77;0.88;;;;;;;;;;4947413;28;20101;-71
2022/08/02 11:03:38;;;;;;;3.45;1.00;;;;;;;;;;4947937;28;20027;-70
2022/08/02 11:06:12;;;;;;;1.65;0.90;;;;;;;;;;4944851;28;20082;-70
2022/08/02 11:08:38;;;;;;;1.83;0.98;;;;;;;;;;4947638;28;20122;-69
2022/08/02 11:11:12;;;;;;;0.95;0.90;;;;;;;;;;4947403;28;20575;-69
2022/08/02 11:14:05;;;;;;;0.80;0.80;;;;;;;;;;4946357;28;20047;-72
2022/08/02 11:16:56;;;;;;;0.90;0.80;;;;;;;;;;4938504;28;20028;-69
2022/08/02 11:19:28;;;;;;;2.17;0.85;;;;;;;;;;4926777;28;20074;-71
2022/08/02 11:22:17;;;;;;;1.38;0.70;;;;;;;;;;4929248;28;20127;-70
2022/08/02 11:24:43;;;;;;;2.03;0.98;;;;;;;;;;4931317;28;20047;-71
2022/08/02 11:27:16;;;;;;;1.88;0.90;;;;;;;;;;4950583;28;20365;-70
2022/08/02 11:29:44;;;;;;;0.70;0.70;;;;;;;;;;4922733;28;20496;-69
2022/08/02 11:32:19;;;;;;;1.58;1.00;;;;;;;;;;4946192;28;20568;-69
2022/08/02 11:34:47;;;;;;;3.25;0.80;;;;;;;;;;4945376;28;20086;-69
2022/08/02 11:37:12;;;;;;;3.08;0.80;;;;;;;;;;4947504;28;20048;-71
2022/08/02 11:39:38;;;;;;;1.90;0.90;;;;;;;;;;4950282;28;20114;-73
2022/08/02 11:42:03;;;;;;;3.30;0.90;;;;;;;;;;4948879;28;20046;-70
2022/08/02 11:44:39;;;;;;;1.63;0.80;;;;;;;;;;4948147;28;20039;-69
2022/08/02 11:47:05;;;;;;;2.25;0.80;;;;;;;;;;4944916;28;20083;-69
2022/08/02 11:49:31;;;;;;;0.90;0.90;;;;;;;;;;4946415;28;20050;-70
2022/08/02 11:52:06;;;;;;;1.65;0.73;;;;;;;;;;4946793;28;20035;-69
2022/08/02 11:54:34;;;;;;;2.80;1.08;;;;;;;;;;4947281;28;20444;-69
2022/08/02 11:57:11;;;;;;;3.58;1.08;;;;;;;;;;4948041;28;20030;-69
2022/08/02 11:59:41;;;;;;;1.00;0.90;;;;;;;;;;4946854;28;20036;-70
2022/08/02 12:02:07;;;;;;;1.20;0.90;;;;;;;;;;4947324;28;20095;-71
2022/08/02 12:04:33;;;;;;;1.65;1.00;;;;;;;;;;4943391;28;20507;-72
2022/08/02 12:07:00;;;;;;;1.98;1.00;;;;;;;;;;4946308;28;20039;-70
2022/08/02 12:09:28;;;;;;;1.48;0.90;;;;;;;;;;4949072;28;20452;-68
2022/08/02 12:11:54;;;;;;;3.08;0.90;;;;;;;;;;4950313;28;20118;-69
2022/08/02 12:14:20;;;;;;;0.95;0.80;;;;;;;;;;4944316;28;20035;-68
2022/08/02 12:19:31;;;;;;;3.45;1.00;;;;;;;;;;4946941;28;20372;-69
2022/08/02 12:22:07;;;;;;;1.17;0.75;;;;;;;;;;4948800;28;20035;-68
2022/08/02 12:24:32;;;;;;;1.10;0.90;;;;;;;;;;4948253;28;20035;-69
2022/08/02 12:26:58;;;;;;;1.85;1.00;;;;;;;;;;4947273;28;20483;-70
2022/08/02 12:29:37;;;;;;;1.63;0.90;;;;;;;;;;4945973;28;20043;-66
2022/08/02 12:32:03;;;;;;;1.17;0.88;;;;;;;;;;4948892;28;20042;-73
2022/08/02 12:34:30;;;;;;;2.65;1.00;;;;;;;;;;4948119;28;20508;-75
2022/08/02 12:37:04;;;;;;;2.08;1.10;;;;;;;;;;4950108;28;20067;-69
2022/08/02 12:39:41;;;;;;;1.20;1.02;;;;;;;;;;4946487;28;20058;-68
2022/08/02 12:42:09;;;;;;;1.08;0.98;;;;;;;;;;4943936;28;20057;-68
2022/08/02 12:44:57;;;;;;;0.77;0.77;;;;;;;;;;4948947;28;20078;-71
2022/08/02 12:47:23;;;;;;;1.02;0.93;;;;;;;;;;4946710;28;20039;-68
2022/08/02 12:50:11;;;;;;;1.85;0.90;;;;;;;;;;4948909;28;20039;-70
2022/08/02 12:52:37;;;;;;;1.10;0.88;;;;;;;;;;4949281;28;20079;-67
2022/08/02 12:55:19;;;;;;;2.25;1.08;;;;;;;;;;4947371;28;20051;-72
2022/08/02 12:58:11;;;;;;;1.35;0.85;;;;;;;;;;4948061;28;20122;-70
2022/08/02 13:00:37;;;;;;;1.37;0.93;;;;;;;;;;4946574;28;20034;-68
2022/08/02 13:03:04;;;;;;;0.77;0.77;;;;;;;;;;4947940;28;20290;-69
2022/08/02 13:05:33;;;;;;;2.38;0.90;;;;;;;;;;4949578;28;20035;-69
2022/08/02 13:08:01;;;;;;;5.15;1.05;;;;;;;;;;4946760;28;20506;-70
2022/08/02 13:10:27;;;;;;;2.63;1.00;;;;;;;;;;4947922;28;20035;-72
2022/08/02 13:12:52;;;;;;;2.10;0.98;;;;;;;;;;4946846;28;20043;-68
2022/08/02 13:15:20;;;;;;;1.80;1.10;;;;;;;;;;4946892;28;20026;-68
2022/08/02 13:17:45;;;;;;;4.38;1.10;;;;;;;;;;4948324;28;20053;-71
2022/08/02 13:20:13;;;;;;;10.18;1.05;;;;;;;;;;4948060;28;20043;-69
2022/08/02 13:22:39;;;;;;;2.22;1.08;;;;;;;;;;4948903;28;20098;-71
2022/08/02 13:25:05;;;;;;;4.35;1.45;;;;;;;;;;4948230;28;20126;-70
2022/08/02 13:27:31;;;;;;;4.70;1.10;;;;;;;;;;4947366;28;20117;-70
2022/08/02 13:29:57;;;;;;;1.00;0.90;;;;;;;;;;4946270;28;20031;-69
2022/08/02 13:32:23;;;;;;;3.35;1.20;;;;;;;;;;4945597;28;20109;-71
2022/08/02 13:34:48;;;;;;;1.30;0.90;;;;;;;;;;4943656;28;20102;-71
2022/08/02 13:37:14;;;;;;;1.13;0.90;;;;;;;;;;4951831;28;20035;-68
2022/08/02 13:39:39;;;;;;;1.48;1.10;;;;;;;;;;4947733;28;20495;-71
2022/08/02 13:42:05;;;;;;;2.00;1.00;;;;;;;;;;4953015;28;20047;-71
2022/08/02 13:44:31;;;;;;;2.28;0.80;;;;;;;;;;4948722;28;20031;-72
2022/08/02 13:46:56;;;;;;;3.28;1.08;;;;;;;;;;4947417;28;20035;-72
2022/08/02 13:49:22;;;;;;;1.10;1.00;;;;;;;;;;4947317;28;20054;-69
2022/08/02 13:51:48;;;;;;;1.17;0.90;;;;;;;;;;4948041;28;20499;-70
2022/08/02 13:54:14;;;;;;;1.25;1.15;;;;;;;;;;4947247;28;20038;-71
2022/08/02 13:56:40;;;;;;;1.27;1.10;;;;;;;;;;4947820;28;20102;-72
2022/08/02 13:59:05;;;;;;;1.08;1.02;;;;;;;;;;4946838;28;20530;-69
2022/08/02 14:01:32;;;;;;;3.05;1.20;;;;;;;;;;4944383;28;20058;-70
2022/08/02 14:03:58;;;;;;;1.90;0.90;;;;;;;;;;4947840;28;20138;-66
2022/08/02 14:06:24;;;;;;;3.33;1.02;;;;;;;;;;4951138;28;20085;-71
2022/08/02 14:08:49;;;;;;;1.58;1.13;;;;;;;;;;4951325;28;20027;-70
2022/08/02 14:11:15;;;;;;;1.00;0.90;;;;;;;;;;4965603;28;20142;-70
2022/08/02 14:13:40;;;;;;;1.85;1.00;;;;;;;;;;4931876;28;20555;-69
2022/08/02 14:16:06;;;;;;;1.25;1.10;;;;;;;;;;4932330;28;20063;-67
2022/08/02 14:18:31;;;;;;;3.63;1.08;;;;;;;;;;4932619;28;20504;-68
2022/08/02 14:20:56;;;;;;;1.08;0.98;;;;;;;;;;4928203;29;20444;-68
2022/08/02 14:23:22;;;;;;;3.05;1.00;;;;;;;;;;4930976;28;20066;-69
2022/08/02 14:25:48;;;;;;;1.75;0.88;;;;;;;;;;4945451;28;20031;-69
2022/08/02 14:28:13;;;;;;;1.08;0.88;;;;;;;;;;4944099;28;20460;-70
2022/08/02 14:30:39;;;;;;;1.00;0.90;;;;;;;;;;4930173;28;20571;-70
2022/08/02 14:33:04;;;;;;;6.78;1.35;;;;;;;;;;4931520;29;20107;-70
2022/08/02 14:35:30;;;;;;;2.33;1.20;;;;;;;;;;4930352;28;20043;-71
2022/08/02 14:37:56;;;;;;;1.10;1.00;;;;;;;;;;4931536;29;20507;-67
2022/08/02 14:40:22;;;;;;;5.03;1.02;;;;;;;;;;4934981;28;20068;-69
2022/08/02 14:42:50;;;;;;;4.30;1.20;;;;;;;;;;4932052;28;20071;-70
2022/08/02 14:45:17;;;;;;;1.48;0.90;;;;;;;;;;4932377;29;20163;-68
2022/08/02 14:47:43;;;;;;;2.03;0.93;;;;;;;;;;4931739;28;20051;-68
2022/08/02 14:50:08;;;;;;;1.55;0.88;;;;;;;;;;4946914;28;20047;-68
2022/08/02 14:52:34;;;;;;;0.93;0.93;;;;;;;;;;4952039;28;20450;-68
2022/08/02 14:54:59;;;;;;;1.88;1.20;;;;;;;;;;4945236;28;20078;-68